Time;durP1;ratioP1;P1;durP2;ratioP2;P2;SDS_P1;SDS_P2;PMS_P1;PMS_P2;Temp;Humidity;BMP_temperature;BMP_pressure;BME280_temperature;BME280_humidity;BME280_pressure;Samples;Min_cycle;Max_cycle;Signal;HPM_P1;HPM_P2
2021/06/11 06:47:03;;;;;;;7.40;5.30;;;;;;;22.49;53.21;102071.88;524293;26;20425;-89
2021/06/11 06:49:28;;;;;;;6.55;4.88;;;;;;;22.59;52.60;102064.78;5032779;28;20056;-92
2021/06/11 06:51:54;;;;;;;5.80;4.95;;;;;;;22.59;52.65;102064.78;5036515;28;20037;-93
2021/06/11 06:54:19;;;;;;;6.55;5.30;;;;;;;22.59;52.06;102065.63;5034602;28;20113;-91
2021/06/11 06:56:45;;;;;;;6.72;5.15;;;;;;;22.62;51.92;102056.00;5033552;28;20038;-92
2021/06/11 06:59:13;;;;;;;6.03;5.03;;;;;;;22.66;51.70;102052.47;5034589;28;20048;-91
2021/06/11 07:01:44;;;;;;;6.22;5.10;;;;;;;22.72;51.66;102073.38;5017992;28;20132;-93
2021/06/11 07:04:09;;;;;;;6.95;5.70;;;;;;;22.72;51.70;102062.88;5015439;28;20449;-92
2021/06/11 07:06:34;;;;;;;6.47;5.00;;;;;;;22.75;51.50;102057.59;5016306;28;20053;-91
2021/06/11 07:09:00;;;;;;;6.07;4.90;;;;;;;22.88;50.99;102063.56;5015476;28;20069;-91
2021/06/11 07:11:32;;;;;;;5.70;4.93;;;;;;;22.89;51.33;102062.69;4998589;28;20102;-92
2021/06/11 07:14:04;;;;;;;5.95;5.05;;;;;;;22.91;51.23;102060.91;5015253;28;20097;-91
2021/06/11 07:16:29;;;;;;;6.07;5.15;;;;;;;22.83;51.60;102052.25;5014178;28;20026;-91
2021/06/11 07:18:57;;;;;;;6.28;5.18;;;;;;;22.98;51.16;102058.19;4996946;28;20381;-88
2021/06/11 07:21:22;;;;;;;6.75;5.60;;;;;;;23.32;50.12;102054.25;4997100;28;20045;-89
2021/06/11 07:23:48;;;;;;;6.80;4.95;;;;;;;23.26;50.27;102059.63;5013160;28;20018;-88
2021/06/11 07:26:13;;;;;;;5.20;4.57;;;;;;;23.48;49.79;102049.66;5013126;28;20100;-88
2021/06/11 07:28:39;;;;;;;6.10;5.10;;;;;;;23.55;49.41;102049.53;4997083;28;20022;-88
2021/06/11 07:31:05;;;;;;;7.00;5.72;;;;;;;23.42;49.88;102053.22;5012781;28;20477;-89
2021/06/11 07:33:31;;;;;;;5.40;4.78;;;;;;;23.37;49.63;102047.19;5013568;28;20037;-88
2021/06/11 07:36:03;;;;;;;5.63;5.05;;;;;;;23.66;48.92;102052.00;5012995;28;20026;-89
2021/06/11 07:38:29;;;;;;;5.63;4.85;;;;;;;24.68;46.21;102044.97;5012944;28;20396;-89
2021/06/11 07:41:01;;;;;;;5.82;5.20;;;;;;;25.17;44.59;102039.53;5013765;28;20030;-87
2021/06/11 07:43:26;;;;;;;6.72;4.45;;;;;;;25.11;45.06;102047.56;5016583;28;20029;-86
2021/06/11 07:45:53;;;;;;;5.47;4.97;;;;;;;24.75;46.07;102047.44;5017292;28;20084;-88
2021/06/11 07:48:19;;;;;;;7.70;5.57;;;;;;;24.30;47.35;102057.94;5021719;28;20061;-87
2021/06/11 07:50:44;;;;;;;5.55;4.90;;;;;;;23.83;48.61;102059.63;5021323;28;20045;-89
2021/06/11 07:53:10;;;;;;;6.05;5.20;;;;;;;23.77;48.62;102067.63;5020575;28;20021;-88
2021/06/11 07:55:35;;;;;;;5.80;4.68;;;;;;;23.57;48.98;102071.38;5020486;28;20056;-89
2021/06/11 07:58:01;;;;;;;6.03;5.03;;;;;;;23.49;49.27;102075.88;5020112;28;20083;-89
2021/06/11 08:00:30;;;;;;;5.22;4.72;;;;;;;23.40;49.67;102078.66;5017905;28;20026;-89
2021/06/11 08:03:00;;;;;;;5.85;4.63;;;;;;;23.28;49.87;102081.44;5018438;28;20543;-89
2021/06/11 08:05:27;;;;;;;5.28;4.78;;;;;;;23.24;50.03;102079.78;5018836;28;20040;-89
2021/06/11 08:07:53;;;;;;;6.53;4.40;;;;;;;23.30;49.89;102096.31;5017178;28;20184;-90
2021/06/11 08:10:20;;;;;;;6.32;4.68;;;;;;;23.19;50.10;102077.19;5016011;28;20404;-89
2021/06/11 08:12:46;;;;;;;6.30;4.43;;;;;;;23.15;50.34;102083.41;5018166;28;20022;-89
2021/06/11 08:15:12;;;;;;;6.20;4.25;;;;;;;23.07;50.15;102080.84;5016854;28;20037;-88
2021/06/11 08:17:38;;;;;;;5.03;4.50;;;;;;;23.10;50.06;102091.31;5017339;28;20072;-91
2021/06/11 08:20:05;;;;;;;6.38;4.43;;;;;;;23.13;49.89;102093.03;5015859;28;20420;-91
2021/06/11 08:22:31;;;;;;;5.10;4.60;;;;;;;23.06;49.92;102091.38;4998989;28;20514;-90
2021/06/11 08:24:59;;;;;;;4.38;3.92;;;;;;;23.07;49.56;102087.88;5017290;28;20064;-91
2021/06/11 08:27:24;;;;;;;6.30;4.13;;;;;;;22.92;49.98;102087.13;5015324;28;20452;-90
2021/06/11 08:29:50;;;;;;;5.70;4.20;;;;;;;22.96;50.15;102088.84;4998793;28;20120;-91
2021/06/11 08:32:18;;;;;;;5.15;3.67;;;;;;;23.05;50.22;102093.13;5015207;28;20029;-91
2021/06/11 08:34:44;;;;;;;4.70;3.83;;;;;;;23.07;49.79;102095.75;5016405;28;20025;-91
2021/06/11 08:37:14;;;;;;;5.53;4.28;;;;;;;22.94;50.19;102093.22;5015422;28;20040;-90
2021/06/11 08:39:39;;;;;;;5.15;4.07;;;;;;;22.95;49.85;102094.97;5015186;28;20040;-89
2021/06/11 08:42:07;;;;;;;8.15;4.47;;;;;;;22.83;50.33;102091.63;5015415;28;20022;-88
2021/06/11 08:44:34;;;;;;;6.07;4.55;;;;;;;22.79;50.00;102090.78;5017335;28;20034;-89
2021/06/11 08:46:59;;;;;;;4.85;3.97;;;;;;;22.77;50.46;102092.56;5024383;23;20110;-89
2021/06/11 08:49:25;;;;;;;5.03;3.95;;;;;;;22.83;50.25;102089.88;4998421;28;20070;-89
2021/06/11 08:51:55;;;;;;;5.07;4.00;;;;;;;22.91;49.95;102089.78;5016819;28;20053;-88
2021/06/11 08:54:20;;;;;;;5.55;4.22;;;;;;;22.83;49.84;102089.00;4998574;28;20030;-89
2021/06/11 08:56:46;;;;;;;5.85;4.07;;;;;;;23.00;49.71;102087.09;4998493;28;20468;-88
2021/06/11 08:59:13;;;;;;;5.35;3.63;;;;;;;23.11;49.80;102087.81;4998589;28;20026;-89
2021/06/11 09:01:38;;;;;;;4.00;3.60;;;;;;;23.28;49.66;102086.69;4998780;28;20034;-88
2021/06/11 09:04:04;;;;;;;4.78;4.00;;;;;;;23.37;48.95;102100.59;4999101;28;20022;-88
2021/06/11 09:06:29;;;;;;;4.43;3.58;;;;;;;23.19;49.45;102099.09;5003373;28;20113;-88
2021/06/11 09:09:01;;;;;;;6.25;4.07;;;;;;;23.28;49.41;102092.84;5005101;28;20093;-90
2021/06/11 09:11:32;;;;;;;4.85;3.90;;;;;;;23.51;48.67;102092.50;5011733;28;20022;-88
2021/06/11 09:14:07;;;;;;;4.93;3.80;;;;;;;23.56;48.53;102095.94;5017114;28;20048;-88
2021/06/11 09:16:46;;;;;;;4.35;3.50;;;;;;;23.85;47.75;102092.03;5006332;28;20017;-88
2021/06/11 09:19:17;;;;;;;4.63;3.60;;;;;;;23.86;47.94;102096.38;5017956;28;20026;-90
2021/06/11 09:21:47;;;;;;;4.25;3.28;;;;;;;23.92;47.70;102098.91;4999012;28;20021;-89
2021/06/11 09:24:22;;;;;;;4.22;3.28;;;;;;;24.07;47.56;102096.94;5000170;28;20216;-89
2021/06/11 09:26:57;;;;;;;3.90;3.40;;;;;;;24.00;47.45;102101.44;4998441;28;20038;-90
2021/06/11 09:29:37;;;;;;;4.28;3.50;;;;;;;24.06;47.37;102106.56;4998925;28;20365;-89
2021/06/11 09:32:13;;;;;;;4.22;3.40;;;;;;;24.10;47.32;102102.13;4983138;28;20057;-91
2021/06/11 09:34:55;;;;;;;4.80;3.35;;;;;;;24.07;47.68;102099.56;4998126;28;20029;-91
2021/06/11 09:40:45;;;;;;;4.40;3.58;;;;;;;23.84;48.06;102095.53;5015936;28;20088;-89
2021/06/11 09:43:13;;;;;;;4.07;3.50;;;;;;;23.94;47.99;102098.91;4997776;28;20064;-90
2021/06/11 09:46:03;;;;;;;4.45;3.20;;;;;;;23.91;48.16;102102.44;4997831;28;20370;-90
2021/06/11 09:48:29;;;;;;;3.97;3.40;;;;;;;23.98;47.58;102096.19;4998449;28;20108;-91
2021/06/11 09:50:56;;;;;;;3.95;3.55;;;;;;;23.89;48.16;102088.47;4998597;28;20030;-91
2021/06/11 09:53:28;;;;;;;4.07;3.40;;;;;;;23.91;48.01;102096.31;4998236;28;20392;-90
2021/06/11 09:55:56;;;;;;;6.13;3.70;;;;;;;23.92;47.97;102095.44;4998140;28;20030;-91
2021/06/11 09:58:28;;;;;;;3.50;3.20;;;;;;;23.98;47.94;102092.69;4998641;28;20072;-91
2021/06/11 10:00:56;;;;;;;3.58;3.28;;;;;;;23.91;48.11;102096.31;4997997;28;20036;-89
2021/06/11 10:03:29;;;;;;;4.38;3.33;;;;;;;23.94;47.90;102091.00;4999104;28;20029;-90
2021/06/11 10:06:00;;;;;;;3.85;3.28;;;;;;;23.94;47.88;102096.28;5001235;28;20480;-87
2021/06/11 10:08:26;;;;;;;5.00;3.40;;;;;;;24.00;48.00;102096.16;4983921;28;20034;-87
2021/06/11 10:10:54;;;;;;;4.10;3.42;;;;;;;23.97;48.19;102102.31;5005048;28;20030;-88
2021/06/11 10:13:21;;;;;;;3.60;3.13;;;;;;;24.00;48.14;102096.16;5024254;28;20030;-86
2021/06/11 10:15:50;;;;;;;5.47;3.42;;;;;;;24.01;48.10;102111.91;5002065;28;20030;-87
2021/06/11 10:21:38;;;;;;;5.80;3.58;;;;;;;23.78;48.26;102114.06;5023404;28;20073;-88
2021/06/11 10:24:05;;;;;;;3.88;3.47;;;;;;;23.71;48.71;102128.13;5000907;28;20030;-91
2021/06/11 10:26:35;;;;;;;4.65;3.28;;;;;;;23.68;48.24;102131.66;5001071;28;20044;-91
2021/06/11 10:29:01;;;;;;;4.18;3.38;;;;;;;23.48;48.86;102133.72;4999032;28;20496;-91
2021/06/11 10:31:26;;;;;;;4.03;3.08;;;;;;;23.45;49.04;102139.00;4982244;28;20026;-90
2021/06/11 10:36:26;;;;;;;4.75;3.20;;;;;;;23.45;49.00;102139.00;5362606;23;20058;-90
2021/06/11 10:38:53;;;;;;;5.35;4.15;;;;;;;23.27;49.48;102137.50;5007725;28;20027;-88
2021/06/11 10:44:45;;;;;;;5.10;3.22;;;;;;;23.35;48.74;102130.41;5003448;28;20113;-90
2021/06/11 10:47:24;;;;;;;4.32;3.50;;;;;;;23.40;48.87;102125.94;4988050;28;20045;-89
2021/06/11 12:23:01;;;;;;;;;;;;;;;;;;;;;
2021/06/11 12:46:22;;;;;;;8.68;6.35;;;;;;;23.12;49.38;102078.16;4997722;28;20157;-88
2021/06/11 12:48:48;;;;;;;9.38;6.75;;;;;;;23.11;49.44;102058.94;4997180;28;20057;-88
2021/06/11 12:51:18;;;;;;;8.35;6.63;;;;;;;22.99;49.59;102051.16;4996320;28;20042;-89
2021/06/11 12:53:44;;;;;;;10.27;6.47;;;;;;;23.05;49.43;102061.63;4996325;28;20050;-90
2021/06/11 12:56:10;;;;;;;8.65;6.30;;;;;;;22.94;49.83;102047.75;4996139;28;20033;-90
2021/06/11 12:58:45;;;;;;;6.57;4.90;;;;;;;22.98;49.92;102055.56;4996602;28;20026;-89
2021/06/11 13:01:10;;;;;;;6.10;4.85;;;;;;;23.04;49.74;102059.91;4997043;28;20031;-89
2021/06/11 13:03:36;;;;;;;8.02;5.00;;;;;;;23.06;49.86;102058.13;4996109;28;20181;-91
2021/06/11 13:06:02;;;;;;;6.45;4.80;;;;;;;23.20;49.36;102064.03;4999300;28;20107;-90
2021/06/11 13:08:28;;;;;;;5.72;4.40;;;;;;;23.17;49.53;102050.97;5004143;28;20030;-91
2021/06/11 13:10:53;;;;;;;7.70;4.82;;;;;;;23.10;49.80;102051.06;4972883;28;20030;-90
2021/06/11 13:13:19;;;;;;;6.60;4.90;;;;;;;23.04;50.06;102049.41;4989399;28;20472;-91
2021/06/11 13:15:44;;;;;;;6.03;4.88;;;;;;;23.13;49.84;102043.16;4987068;28;20037;-89
2021/06/11 13:18:12;;;;;;;5.13;4.25;;;;;;;23.34;49.41;102044.59;5003655;28;20429;-90
2021/06/11 13:20:37;;;;;;;5.68;4.43;;;;;;;23.23;49.77;102042.13;4999965;28;20030;-92
2021/06/11 13:23:05;;;;;;;6.38;4.70;;;;;;;23.17;50.05;102039.59;4998128;28;20038;-89
2021/06/11 13:25:30;;;;;;;6.70;4.50;;;;;;;23.24;49.76;102033.38;4980631;28;20030;-89
2021/06/11 13:27:56;;;;;;;5.80;4.22;;;;;;;23.22;49.69;102040.41;4980106;28;20034;-90
2021/06/11 13:30:22;;;;;;;5.57;4.32;;;;;;;23.15;49.69;102041.38;4995813;28;20026;-89
2021/06/11 13:32:47;;;;;;;5.05;4.00;;;;;;;23.16;49.85;102045.72;4995807;28;20029;-90
2021/06/11 13:35:13;;;;;;;5.57;4.30;;;;;;;23.18;49.67;102052.69;4996249;28;20033;-90
2021/06/11 13:37:39;;;;;;;4.80;3.75;;;;;;;23.32;49.51;102054.25;4978543;28;20113;-88
2021/06/11 13:40:06;;;;;;;4.35;3.53;;;;;;;23.45;48.99;102052.31;4993799;28;20555;-88
2021/06/11 13:42:31;;;;;;;4.95;3.63;;;;;;;23.52;48.74;102054.84;4994505;28;20046;-88
2021/06/11 13:44:57;;;;;;;4.22;3.33;;;;;;;23.57;48.59;102037.22;4978505;28;20085;-88
2021/06/11 13:47:22;;;;;;;5.30;3.78;;;;;;;23.64;49.08;102042.41;4994385;28;20500;-88
2021/06/11 13:49:47;;;;;;;6.75;3.42;;;;;;;23.64;48.61;102031.88;4994427;28;20382;-86
2021/06/11 13:52:14;;;;;;;4.85;3.38;;;;;;;23.69;48.63;102049.34;4994420;28;20026;-88
2021/06/11 13:54:40;;;;;;;5.22;3.40;;;;;;;23.70;48.56;102039.69;4994964;28;20093;-87
2021/06/11 13:57:06;;;;;;;5.90;3.03;;;;;;;23.72;48.32;102041.38;4994803;28;20399;-89
2021/06/11 13:59:32;;;;;;;5.63;3.60;;;;;;;23.76;48.47;102048.34;4996184;28;20094;-88
2021/06/11 14:01:58;;;;;;;6.07;3.38;;;;;;;23.78;48.22;102048.34;4994548;28;20061;-88
2021/06/11 14:04:23;;;;;;;4.05;3.15;;;;;;;23.80;48.52;102046.53;4995026;28;20372;-88
2021/06/11 14:06:49;;;;;;;4.07;2.95;;;;;;;23.82;48.45;102039.47;4995272;28;20030;-88
2021/06/11 14:09:14;;;;;;;4.15;3.40;;;;;;;23.85;48.48;102034.19;4994628;28;20029;-88
2021/06/11 14:11:40;;;;;;;4.63;3.13;;;;;;;23.86;48.05;102043.81;4994111;28;20069;-87
2021/06/11 14:14:06;;;;;;;4.15;3.10;;;;;;;23.87;48.04;102037.66;4993993;28;20374;-86
2021/06/11 14:16:31;;;;;;;3.72;3.00;;;;;;;23.90;47.79;102031.47;4994549;28;20500;-88
2021/06/11 14:18:59;;;;;;;4.18;3.13;;;;;;;23.90;48.17;102031.47;4994712;28;20130;-88
2021/06/11 14:21:25;;;;;;;3.42;2.63;;;;;;;23.90;47.94;102016.56;4997889;28;20033;-88
2021/06/11 14:23:50;;;;;;;3.80;2.83;;;;;;;23.90;48.14;102040.22;4995750;28;20026;-87
2021/06/11 14:26:16;;;;;;;3.80;3.20;;;;;;;23.92;48.25;102045.47;4996217;28;20033;-88
2021/06/11 14:28:41;;;;;;;3.38;3.05;;;;;;;23.93;48.38;102031.41;4979218;28;20445;-88
2021/06/11 14:31:07;;;;;;;6.75;3.10;;;;;;;23.94;48.16;102035.81;4994674;28;20031;-88
2021/06/11 14:33:33;;;;;;;4.80;3.33;;;;;;;23.94;48.29;102035.81;4961933;28;20026;-88
2021/06/11 14:35:58;;;;;;;3.58;3.20;;;;;;;23.94;48.44;102044.53;4994760;28;20026;-88
2021/06/11 14:38:24;;;;;;;7.10;3.30;;;;;;;23.95;48.46;102045.41;4978711;28;20035;-88
2021/06/11 14:40:49;;;;;;;4.05;3.30;;;;;;;23.96;48.09;102050.66;4994116;28;20030;-89
2021/06/11 14:43:15;;;;;;;4.60;3.20;;;;;;;23.97;48.35;102041.84;4993849;28;20060;-88
2021/06/11 14:45:41;;;;;;;4.47;3.22;;;;;;;23.97;47.93;102049.75;4994287;28;20101;-88
2021/06/11 14:48:08;;;;;;;6.20;3.00;;;;;;;23.96;48.11;102045.38;4994285;28;20030;-89
2021/06/11 14:50:34;;;;;;;5.65;3.30;;;;;;;23.96;48.05;102039.28;4976966;28;20041;-87
2021/06/11 14:53:06;;;;;;;6.32;3.15;;;;;;;23.99;48.27;102042.69;4994999;28;20366;-88
2021/06/11 14:55:33;;;;;;;5.63;3.00;;;;;;;24.00;47.70;102047.06;4993615;28;20026;-87
2021/06/11 14:58:00;;;;;;;6.95;3.10;;;;;;;24.02;47.74;102034.78;4993219;28;20022;-87
2021/06/11 15:00:27;;;;;;;6.05;3.08;;;;;;;24.01;47.74;102035.66;4993264;28;20408;-87
2021/06/11 15:02:52;;;;;;;4.47;3.15;;;;;;;24.03;47.95;102035.63;4993764;28;20060;-87
2021/06/11 15:05:18;;;;;;;7.07;3.60;;;;;;;24.03;47.88;102031.22;4993745;28;20062;-88
2021/06/11 15:07:44;;;;;;;6.63;3.42;;;;;;;24.05;48.02;102036.47;4994114;28;20042;-87
2021/06/11 15:10:10;;;;;;;9.57;3.20;;;;;;;24.10;47.79;102034.63;4993200;28;20031;-87
2021/06/11 15:12:35;;;;;;;5.10;3.13;;;;;;;24.11;48.06;102040.75;4993864;28;20038;-87
2021/06/11 15:15:01;;;;;;;8.23;2.80;;;;;;;24.19;48.19;102039.72;4993569;28;20507;-85
2021/06/11 15:17:29;;;;;;;6.38;2.95;;;;;;;24.24;48.38;102039.66;4994258;28;20073;-88
2021/06/11 15:19:57;;;;;;;4.40;2.80;;;;;;;24.22;47.90;102028.28;4992917;28;20026;-87
2021/06/11 15:25:45;;;;;;;7.55;2.63;;;;;;;24.15;49.28;102042.41;4994738;28;20612;-88
2021/06/11 15:28:14;;;;;;;6.10;3.10;;;;;;;24.10;49.57;102031.13;4993906;28;20019;-88
2021/06/11 15:30:41;;;;;;;6.30;3.45;;;;;;;24.05;49.24;102041.72;4981925;28;20054;-89
2021/06/11 15:33:08;;;;;;;7.72;3.45;;;;;;;24.01;49.38;102038.28;5008521;28;20481;-90
2021/06/11 15:35:34;;;;;;;10.10;4.40;;;;;;;23.99;48.66;102024.28;5004325;28;20034;-90
2021/06/11 15:37:59;;;;;;;8.57;4.13;;;;;;;24.00;48.80;102030.44;4997658;28;20031;-91
2021/06/11 15:40:25;;;;;;;8.07;4.68;;;;;;;24.00;48.31;102028.66;4980222;28;20057;-90
2021/06/11 15:42:52;;;;;;;8.77;5.82;;;;;;;23.98;48.65;102019.94;4995557;28;20042;-90
2021/06/11 15:45:17;;;;;;;9.48;5.47;;;;;;;23.98;48.43;102027.81;4979181;28;20055;-90
2021/06/11 15:47:44;;;;;;;10.18;5.63;;;;;;;23.97;48.18;102025.22;4996157;28;20030;-90
2021/06/11 15:50:10;;;;;;;9.32;5.90;;;;;;;24.01;47.92;102042.69;4995406;28;20030;-90
2021/06/11 15:52:38;;;;;;;8.70;6.03;;;;;;;24.00;48.11;102028.66;4978352;28;20030;-91
2021/06/11 15:55:04;;;;;;;12.30;6.75;;;;;;;23.99;47.64;102037.44;4994439;28;20026;-90
2021/06/11 15:57:30;;;;;;;8.52;6.32;;;;;;;23.99;47.78;102037.44;4994374;28;20033;-90
2021/06/11 15:59:57;;;;;;;10.27;6.82;;;;;;;24.06;47.68;102038.19;4995431;28;20041;-92
2021/06/11 16:02:23;;;;;;;8.63;6.32;;;;;;;24.08;47.66;102038.19;4980108;28;20520;-91
2021/06/11 16:04:49;;;;;;;8.70;6.30;;;;;;;24.08;47.98;102032.91;5000441;28;20026;-90
2021/06/11 16:07:15;;;;;;;9.55;6.68;;;;;;;24.09;47.86;102032.91;4997894;28;20117;-88
2021/06/11 16:09:41;;;;;;;8.88;7.10;;;;;;;24.12;47.91;102031.97;4995956;28;20030;-87
2021/06/11 16:12:10;;;;;;;9.65;6.88;;;;;;;24.09;47.66;102006.59;4996100;28;20026;-88
2021/06/11 16:14:36;;;;;;;9.32;6.97;;;;;;;24.09;47.47;102013.63;4979959;28;20045;-88
2021/06/11 16:17:02;;;;;;;9.63;6.60;;;;;;;24.05;47.93;102012.81;4995501;28;20132;-88
2021/06/11 16:19:27;;;;;;;9.88;6.28;;;;;;;24.05;48.04;102012.81;4978913;28;20550;-87
2021/06/11 16:21:54;;;;;;;6.50;5.80;;;;;;;24.02;48.02;102011.09;4995716;28;20397;-88
2021/06/11 16:24:19;;;;;;;7.35;5.47;;;;;;;24.02;48.55;102019.00;4995302;28;20054;-88
2021/06/11 16:26:45;;;;;;;6.93;5.35;;;;;;;24.00;48.55;102012.03;4996409;28;20058;-87
2021/06/11 16:29:10;;;;;;;7.47;6.03;;;;;;;24.01;48.65;102013.75;4995036;28;20038;-89
2021/06/11 16:31:36;;;;;;;8.40;5.55;;;;;;;24.02;48.66;102013.72;4996604;28;20026;-89
2021/06/11 16:34:02;;;;;;;7.03;5.90;;;;;;;24.00;48.62;102012.91;4994985;28;20072;-89
2021/06/11 16:36:27;;;;;;;6.90;5.30;;;;;;;24.01;48.62;102019.88;4995306;28;20025;-89
2021/06/11 16:38:53;;;;;;;7.80;5.63;;;;;;;24.00;48.55;102010.25;4995228;28;20117;-90
2021/06/11 16:41:18;;;;;;;7.43;5.88;;;;;;;24.00;48.38;102010.25;4994966;28;20031;-89
2021/06/11 16:43:45;;;;;;;7.97;6.43;;;;;;;23.99;48.05;102008.50;4994899;28;20149;-89
2021/06/11 16:46:10;;;;;;;7.30;6.00;;;;;;;23.98;47.96;102012.06;4994637;28;20027;-89
2021/06/11 16:48:36;;;;;;;8.23;5.57;;;;;;;24.00;47.97;102012.91;4994965;28;20358;-89
2021/06/11 16:51:02;;;;;;;7.10;5.78;;;;;;;24.03;47.93;102012.81;4996292;28;20042;-89
2021/06/11 16:53:30;;;;;;;6.93;5.43;;;;;;;24.00;47.82;102006.78;4994815;28;20057;-89
2021/06/11 16:55:55;;;;;;;7.65;5.50;;;;;;;24.03;47.97;102007.56;4994537;28;20890;-89
2021/06/11 16:58:22;;;;;;;6.55;5.43;;;;;;;24.04;47.55;102003.19;4994699;28;20125;-89
2021/06/11 17:00:48;;;;;;;8.10;5.28;;;;;;;24.04;47.63;102003.19;4994921;28;20038;-88
2021/06/11 17:03:14;;;;;;;7.35;5.30;;;;;;;24.04;47.89;102003.19;4994511;28;20041;-89
2021/06/11 17:05:39;;;;;;;5.63;4.78;;;;;;;24.05;47.99;102007.53;4994497;28;20381;-89
2021/06/11 17:08:05;;;;;;;7.53;4.75;;;;;;;24.03;47.53;102004.94;4994513;28;20030;-88
2021/06/11 17:10:30;;;;;;;7.68;4.75;;;;;;;24.02;47.81;101997.97;4995197;28;20034;-88
2021/06/11 17:12:56;;;;;;;6.00;4.85;;;;;;;24.02;47.68;102005.00;4994948;28;20133;-89
2021/06/11 17:15:27;;;;;;;6.15;5.10;;;;;;;24.02;48.02;102013.72;4994937;28;20022;-88
2021/06/11 17:17:53;;;;;;;6.18;5.25;;;;;;;23.97;47.84;101999.78;4996033;28;20026;-89
2021/06/11 17:20:22;;;;;;;7.95;4.90;;;;;;;23.95;48.42;102003.34;4996636;28;20056;-89
2021/06/11 17:22:51;;;;;;;6.07;5.07;;;;;;;23.95;48.23;102003.34;4996277;28;20018;-86
2021/06/11 17:25:25;;;;;;;6.35;4.78;;;;;;;23.96;48.05;102002.47;4996340;28;20026;-88
2021/06/11 17:27:55;;;;;;;5.50;4.57;;;;;;;23.96;48.34;101991.94;4998834;28;20030;-87
2021/06/11 17:30:27;;;;;;;9.68;5.43;;;;;;;23.96;48.66;101994.56;5000767;28;20022;-88
2021/06/11 17:32:55;;;;;;;9.20;5.13;;;;;;;23.96;48.41;101998.06;4998130;28;20113;-88
2021/06/11 17:35:23;;;;;;;10.77;4.47;;;;;;;24.01;48.83;101998.84;5000120;28;20077;-89
2021/06/11 17:38:01;;;;;;;7.85;5.00;;;;;;;24.04;48.97;101987.41;4997250;28;20026;-87
2021/06/11 17:44:07;;;;;;;9.35;5.57;;;;;;;24.13;51.16;101989.88;4988832;28;20054;-86
2021/06/11 17:46:33;;;;;;;9.05;5.13;;;;;;;24.10;50.66;101989.91;4956087;29;20126;-87
2021/06/11 17:49:02;;;;;;;9.57;4.85;;;;;;;24.07;50.77;101989.97;4957807;28;20043;-87
2021/06/11 17:51:28;;;;;;;8.30;4.97;;;;;;;24.02;50.29;101990.06;4957407;29;20031;-86
2021/06/11 17:53:53;;;;;;;6.45;4.95;;;;;;;24.00;50.09;101993.63;4948892;29;20181;-87
2021/06/11 17:56:26;;;;;;;6.97;5.28;;;;;;;24.00;50.49;101985.75;4962018;28;20051;-87
2021/06/11 17:58:54;;;;;;;7.60;5.68;;;;;;;23.95;50.85;101983.19;4967947;28;20117;-88
2021/06/11 18:01:20;;;;;;;7.05;5.43;;;;;;;23.89;50.91;101988.56;4965669;28;20090;-88
2021/06/11 18:03:47;;;;;;;9.55;5.35;;;;;;;23.80;50.89;101992.22;4960163;29;20375;-87
2021/06/11 18:06:14;;;;;;;7.88;5.50;;;;;;;23.76;50.82;101987.91;4957013;28;20031;-88
2021/06/11 18:08:45;;;;;;;8.25;4.75;;;;;;;23.72;50.55;101985.34;4956462;29;20042;-88
2021/06/11 18:11:18;;;;;;;6.63;5.10;;;;;;;23.68;50.20;101988.91;4956565;28;20225;-87
2021/06/11 18:13:55;;;;;;;7.13;4.90;;;;;;;23.71;50.35;101984.44;4957071;28;20039;-89
2021/06/11 18:16:26;;;;;;;5.95;4.50;;;;;;;23.71;50.05;101983.56;4956234;29;20462;-88
2021/06/11 18:19:04;;;;;;;6.20;4.65;;;;;;;23.70;50.44;101980.09;4956620;29;20038;-88
2021/06/11 18:21:38;;;;;;;6.57;4.30;;;;;;;23.69;50.19;101988.88;4956031;29;20030;-88
2021/06/11 18:24:28;;;;;;;7.35;3.97;;;;;;;23.68;49.99;101994.16;4956706;29;20097;-89
2021/06/11 18:27:04;;;;;;;6.68;4.32;;;;;;;23.66;49.90;101988.91;4956576;28;20046;-88
2021/06/11 18:29:32;;;;;;;6.03;4.05;;;;;;;23.65;49.79;101986.31;4956955;28;20039;-88
2021/06/11 18:31:57;;;;;;;5.85;3.92;;;;;;;23.63;49.77;101986.34;4959678;28;20482;-88
2021/06/11 18:34:23;;;;;;;7.28;4.00;;;;;;;23.62;50.03;101984.59;4957246;29;20054;-89
2021/06/11 18:36:48;;;;;;;4.13;3.72;;;;;;;23.62;50.14;101979.34;4955032;29;20498;-89
2021/06/11 18:39:14;;;;;;;6.07;3.78;;;;;;;23.60;49.87;101984.66;4954934;28;20031;-89
2021/06/11 18:41:42;;;;;;;5.70;3.95;;;;;;;23.62;50.18;101985.47;4939172;29;20031;-88
2021/06/11 18:44:29;;;;;;;5.07;3.75;;;;;;;23.61;49.97;101978.50;4958521;28;20027;-90
2021/06/11 18:46:55;;;;;;;5.75;3.75;;;;;;;23.63;50.01;101981.09;4993114;28;20088;-88
2021/06/11 18:49:26;;;;;;;5.93;4.03;;;;;;;23.59;49.72;101967.13;4993626;28;20026;-90
2021/06/11 18:51:52;;;;;;;5.45;3.50;;;;;;;23.59;49.67;101982.91;4993303;28;20026;-88
2021/06/11 18:54:20;;;;;;;5.78;3.70;;;;;;;23.58;49.62;101972.41;4993603;28;20022;-88
2021/06/11 18:56:54;;;;;;;5.00;3.72;;;;;;;23.54;49.68;101975.97;4995113;28;20033;-87
2021/06/11 18:59:29;;;;;;;5.03;3.40;;;;;;;23.52;49.70;101977.78;4979426;28;20037;-87
2021/06/11 19:01:58;;;;;;;5.60;4.15;;;;;;;23.48;49.90;101974.34;4993401;28;20081;-88
2021/06/11 19:07:48;;;;;;;6.32;3.85;;;;;;;23.45;49.87;101968.25;4996174;28;20041;-88
2021/06/11 19:10:16;;;;;;;5.85;3.80;;;;;;;23.41;49.60;101968.31;4978478;28;20030;-88
2021/06/11 19:12:43;;;;;;;6.63;3.67;;;;;;;23.39;49.79;101969.25;4995886;28;20102;-88
2021/06/11 19:15:19;;;;;;;6.22;3.92;;;;;;;23.38;50.05;101964.84;4994726;28;20093;-87
2021/06/11 19:17:51;;;;;;;5.80;4.00;;;;;;;23.36;49.85;101967.50;4994927;28;20149;-88
2021/06/11 19:20:31;;;;;;;4.75;3.50;;;;;;;23.36;50.02;101971.91;4993070;28;20081;-89
2021/06/11 19:23:08;;;;;;;5.63;4.10;;;;;;;23.34;49.90;101973.66;4992854;28;20034;-89
2021/06/11 19:25:34;;;;;;;4.47;3.47;;;;;;;23.32;50.07;101967.56;4992825;28;20045;-89
2021/06/11 19:28:00;;;;;;;5.57;3.78;;;;;;;23.32;49.88;101972.81;4993262;28;20030;-89
2021/06/11 19:30:40;;;;;;;4.28;3.72;;;;;;;23.32;50.08;101970.19;4993555;28;20031;-87
2021/06/11 19:33:23;;;;;;;5.28;3.78;;;;;;;23.29;50.03;101976.38;4976845;28;20034;-88
2021/06/11 19:35:52;;;;;;;4.70;3.60;;;;;;;23.27;49.96;101974.66;4993124;28;20088;-88
2021/06/11 19:38:26;;;;;;;5.43;3.67;;;;;;;23.25;50.21;101961.56;4995041;28;20436;-88
2021/06/11 19:40:59;;;;;;;4.53;3.20;;;;;;;23.25;50.29;101963.31;4981632;28;20499;-87
2021/06/11 19:43:32;;;;;;;4.57;3.60;;;;;;;23.30;50.42;101971.97;4997750;28;20034;-90
2021/06/11 19:46:01;;;;;;;5.47;4.15;;;;;;;23.27;50.33;101970.28;4996354;28;20034;-90
2021/06/11 19:48:27;;;;;;;3.95;3.47;;;;;;;23.29;50.18;101973.75;4996233;28;20184;-89
2021/06/11 19:50:54;;;;;;;6.88;4.10;;;;;;;23.26;50.78;101972.94;4996609;28;20493;-90
2021/06/11 19:53:28;;;;;;;5.13;3.60;;;;;;;23.27;50.95;101970.28;4996548;28;20414;-90
2021/06/11 19:56:09;;;;;;;4.38;3.75;;;;;;;23.29;50.29;101970.25;4996479;28;20154;-89
2021/06/11 19:58:40;;;;;;;3.78;3.40;;;;;;;23.29;50.65;101971.13;4997622;28;20026;-89
2021/06/11 20:01:22;;;;;;;6.10;3.90;;;;;;;23.29;50.76;101972.88;4997229;28;20033;-89
2021/06/11 20:03:53;;;;;;;5.57;3.10;;;;;;;23.26;50.50;101981.69;4996124;28;20443;-89
2021/06/11 20:06:21;;;;;;;6.57;3.60;;;;;;;23.25;50.69;101984.34;4996704;28;20165;-89
2021/06/11 20:08:49;;;;;;;4.60;3.50;;;;;;;23.24;50.67;101983.47;4996541;28;20033;-89
2021/06/11 20:11:16;;;;;;;4.47;3.55;;;;;;;23.26;50.75;101978.19;4997160;28;20044;-88
2021/06/11 20:13:43;;;;;;;5.93;3.70;;;;;;;23.24;50.86;101983.47;4979915;28;20026;-89
2021/06/11 20:16:10;;;;;;;5.35;3.83;;;;;;;23.20;51.12;101982.63;4996431;28;20026;-88
2021/06/11 20:18:36;;;;;;;5.85;4.15;;;;;;;23.19;50.68;101988.78;4996758;28;20117;-91
2021/06/11 20:21:05;;;;;;;5.75;3.88;;;;;;;23.22;50.52;101989.63;4996379;28;20126;-90
2021/06/11 20:23:31;;;;;;;4.75;3.88;;;;;;;23.19;51.22;101988.78;4995983;28;20410;-89
2021/06/11 20:25:59;;;;;;;4.78;3.80;;;;;;;23.21;50.79;101991.38;4979813;28;20080;-89
2021/06/11 20:28:25;;;;;;;5.75;3.50;;;;;;;23.18;50.63;101994.91;4997187;28;20473;-88
2021/06/11 20:30:50;;;;;;;3.97;3.58;;;;;;;23.18;51.09;101992.28;4995934;28;20069;-89
2021/06/11 20:33:16;;;;;;;4.38;3.40;;;;;;;23.19;50.76;102001.03;4980427;28;20034;-90